createdAt,value
2023-04-02T00:02:38.477Z,100.0
2023-04-02T00:07:38.373Z,100.0
2023-04-02T00:12:38.396Z,100.0
2023-04-02T00:22:38.380Z,100.0
2023-04-02T00:42:38.392Z,100.0
2023-04-02T00:52:38.380Z,100.0
2023-04-02T00:57:38.383Z,100.0
2023-04-02T01:07:38.408Z,100.0
2023-04-02T01:12:38.418Z,100.0
2023-04-02T01:17:38.449Z,100.0
2023-04-02T01:27:38.407Z,100.0
2023-04-02T01:32:38.469Z,100.0
2023-04-02T01:37:38.389Z,100.0
2023-04-02T01:42:38.394Z,100.0
2023-04-02T01:52:38.410Z,100.0
2023-04-02T01:57:38.386Z,100.0
2023-04-02T02:02:38.538Z,100.0
2023-04-02T02:07:38.405Z,100.0
2023-04-02T02:12:38.430Z,100.0
2023-04-02T02:17:38.472Z,100.0
2023-04-02T02:22:38.410Z,100.0
2023-04-02T02:27:38.413Z,100.0
2023-04-02T02:42:38.424Z,100.0
2023-04-02T02:47:38.472Z,100.0
2023-04-02T02:52:38.458Z,100.0
2023-04-02T02:57:38.395Z,100.0
2023-04-02T03:02:38.542Z,100.0
2023-04-02T03:07:38.444Z,99.6
2023-04-02T03:12:38.444Z,100.0
2023-04-02T03:17:38.420Z,100.0
2023-04-02T03:22:38.416Z,100.0
2023-04-02T03:27:38.435Z,100.0
2023-04-02T03:32:38.476Z,99.6
2023-04-02T03:37:38.423Z,99.3
2023-04-02T03:42:38.434Z,98.3
2023-04-02T03:47:38.465Z,97.2
2023-04-02T03:52:38.424Z,98.5
2023-04-02T03:57:38.449Z,97.5
2023-04-02T04:07:38.447Z,96.3
2023-04-02T04:12:38.632Z,96.8
2023-04-02T04:17:38.504Z,97.6
2023-04-02T04:22:38.426Z,96.0
2023-04-02T04:27:38.452Z,96.1
2023-04-02T04:32:38.514Z,95.4
2023-04-02T04:47:38.485Z,94.8
2023-04-02T04:52:38.439Z,94.1
2023-04-02T05:07:38.476Z,91.0
2023-04-02T05:12:38.458Z,92.1
2023-04-02T05:17:38.475Z,92.9
2023-04-02T05:22:40.209Z,91.3
2023-04-02T05:27:38.463Z,90.7
2023-04-02T05:32:38.458Z,91.9
2023-04-02T05:37:38.463Z,91.5
2023-04-02T05:42:38.452Z,91.3
2023-04-02T05:47:38.467Z,90.0
2023-04-02T05:52:38.455Z,91.0
2023-04-02T05:57:46.754Z,88.4
2023-04-02T06:02:38.612Z,90.0
2023-04-02T06:07:38.459Z,89.8
2023-04-02T06:12:38.485Z,88.2
2023-04-02T06:17:38.519Z,89.6
2023-04-02T06:22:38.480Z,88.8
2023-04-02T06:27:38.490Z,86.3
2023-04-02T06:32:38.559Z,88.5
2023-04-02T06:37:38.472Z,88.0
2023-04-02T06:42:38.486Z,88.6
2023-04-02T06:47:38.541Z,88.5
2023-04-02T06:52:38.480Z,86.6
2023-04-02T06:57:38.478Z,88.4
2023-04-02T07:02:38.500Z,87.7
2023-04-02T07:07:38.499Z,86.6
2023-04-02T07:12:38.508Z,86.9
2023-04-02T07:17:38.574Z,84.6
2023-04-02T07:22:38.476Z,85.9
2023-04-02T07:27:38.539Z,84.8
2023-04-02T07:32:38.533Z,84.8
2023-04-02T07:42:38.473Z,82.0
2023-04-02T07:47:38.516Z,83.4
2023-04-02T07:52:40.384Z,82.7
2023-04-02T07:57:38.480Z,79.4
2023-04-02T08:02:38.520Z,81.6
2023-04-02T08:07:38.505Z,80.9
2023-04-02T08:17:39.428Z,82.2
2023-04-02T08:27:38.550Z,80.9
2023-04-02T08:32:38.503Z,80.9
2023-04-02T08:37:38.512Z,79.6
2023-04-02T08:42:38.509Z,79.8
2023-04-02T08:47:38.525Z,79.3
2023-04-02T08:57:38.512Z,78.3
2023-04-02T09:02:38.567Z,79.3
2023-04-02T09:07:38.518Z,76.7
2023-04-02T09:12:39.268Z,75.7
2023-04-02T09:17:53.017Z,74.0
2023-04-02T09:22:38.531Z,74.0
2023-04-02T09:27:38.524Z,73.7
2023-04-02T09:32:38.541Z,74.6
2023-04-02T09:37:38.509Z,72.7
2023-04-02T09:42:38.537Z,73.5
2023-04-02T09:47:40.243Z,72.8
2023-04-02T09:52:38.512Z,73.0
2023-04-02T09:57:38.540Z,72.4
2023-04-02T10:02:38.567Z,70.9
2023-04-02T10:07:38.538Z,73.1
2023-04-02T10:12:38.516Z,74.2
2023-04-02T10:17:38.554Z,71.4
2023-04-02T10:22:38.540Z,70.8
2023-04-02T10:27:38.535Z,73.4
2023-04-02T10:32:38.573Z,70.9
2023-04-02T10:37:38.558Z,61.0
2023-04-02T10:42:38.546Z,53.3
2023-04-02T10:47:38.612Z,50.9
2023-04-02T10:52:38.530Z,55.2
2023-04-02T10:57:38.622Z,56.5
2023-04-02T11:02:38.579Z,65.2
2023-04-02T11:07:38.545Z,68.0
2023-04-02T11:12:41.780Z,66.7
2023-04-02T11:17:38.589Z,55.9
2023-04-02T11:22:38.545Z,48.4
2023-04-02T11:32:38.565Z,44.8
2023-04-02T11:37:38.597Z,48.2
2023-04-02T11:42:38.534Z,45.0
2023-04-02T11:47:38.545Z,43.3
2023-04-02T11:52:38.567Z,43.0
2023-04-02T11:57:38.573Z,43.3
2023-04-02T12:02:38.669Z,41.6
2023-04-02T12:07:38.625Z,40.8
2023-04-02T12:12:38.582Z,40.8
2023-04-02T12:17:38.561Z,40.8
2023-04-02T12:22:38.553Z,43.5
2023-04-02T12:27:38.563Z,44.0
2023-04-02T12:32:39.738Z,45.2
2023-04-02T12:37:38.572Z,45.2
2023-04-02T12:42:38.545Z,42.6
2023-04-02T12:47:38.612Z,39.6
2023-04-02T12:52:38.570Z,37.7
2023-04-02T12:57:38.673Z,42.5
2023-04-02T13:02:38.665Z,41.4
2023-04-02T13:07:38.547Z,38.5
2023-04-02T13:12:38.583Z,39.9
2023-04-02T13:17:38.638Z,37.5
2023-04-02T13:22:38.586Z,39.4
2023-04-02T13:27:38.573Z,37.8
2023-04-02T13:32:39.610Z,37.1
2023-04-02T13:37:38.592Z,37.1
2023-04-02T13:42:38.583Z,37.5
2023-04-02T13:47:41.151Z,34.1
2023-04-02T13:52:38.593Z,33.5
2023-04-02T13:57:38.620Z,33.0
2023-04-02T14:02:38.623Z,32.4
2023-04-02T14:07:38.591Z,37.4
2023-04-02T14:12:38.595Z,35.7
2023-04-02T14:17:38.650Z,36.3
2023-04-02T14:22:38.594Z,37.2
2023-04-02T14:27:40.238Z,37.7
2023-04-02T14:32:38.672Z,38.1
2023-04-02T14:37:38.587Z,36.5
2023-04-02T14:42:38.596Z,34.2
2023-04-02T14:47:38.650Z,34.7
2023-04-02T14:52:38.609Z,36.4
2023-04-02T14:57:38.653Z,36.3
2023-04-02T15:02:38.626Z,36.3
2023-04-02T15:07:38.737Z,35.1
2023-04-02T15:12:38.622Z,36.4
2023-04-02T15:17:38.626Z,37.6
2023-04-02T15:22:40.132Z,36.9
2023-04-02T15:27:38.625Z,36.9
2023-04-02T15:32:38.676Z,36.9
2023-04-02T15:37:38.594Z,37.7
2023-04-02T15:42:38.652Z,37.1
2023-04-02T15:47:38.653Z,35.7
2023-04-02T15:52:38.633Z,37.9
2023-04-02T15:57:38.648Z,36.5
2023-04-02T16:02:38.686Z,36.2
2023-04-02T16:07:38.644Z,38.1
2023-04-02T16:12:38.650Z,37.0
2023-04-02T16:17:38.686Z,38.2
2023-04-02T16:22:40.559Z,44.9
2023-04-02T16:27:38.642Z,49.1
2023-04-02T16:32:38.714Z,50.0
2023-04-02T16:42:38.642Z,49.0
2023-04-02T16:47:38.717Z,51.4
2023-04-02T16:52:38.656Z,52.6
2023-04-02T17:02:38.698Z,50.5
2023-04-02T17:07:38.650Z,50.9
2023-04-02T17:12:38.644Z,53.5
2023-04-02T17:17:38.686Z,54.1
2023-04-02T17:22:38.670Z,53.8
2023-04-02T17:27:38.660Z,54.5
2023-04-02T17:37:38.665Z,55.0
2023-04-02T17:42:38.657Z,55.5
2023-04-02T17:52:38.646Z,57.4
2023-04-02T17:57:38.856Z,57.1
2023-04-02T18:02:38.796Z,59.5
2023-04-02T18:07:38.687Z,60.3
2023-04-02T18:17:38.706Z,60.2
2023-04-02T18:22:38.665Z,62.2
2023-04-02T18:27:38.670Z,63.5
2023-04-02T18:32:38.718Z,59.9
2023-04-02T18:37:38.676Z,65.6
2023-04-02T18:42:38.676Z,66.8
2023-04-02T18:47:38.735Z,66.8
2023-04-02T18:52:38.700Z,67.0
2023-04-02T18:57:38.718Z,64.7
2023-04-02T19:02:38.729Z,66.8
2023-04-02T19:07:38.704Z,67.5
2023-04-02T19:12:38.690Z,65.6
2023-04-02T19:27:38.703Z,71.8
2023-04-02T19:32:38.743Z,73.5
2023-04-02T19:37:38.706Z,71.1
2023-04-02T19:42:38.690Z,71.2
2023-04-02T19:47:38.725Z,73.8
2023-04-02T19:52:38.701Z,72.1
2023-04-02T19:57:38.753Z,73.6
2023-04-02T20:07:38.719Z,76.4
2023-04-02T20:12:38.713Z,77.7
2023-04-02T20:17:38.779Z,76.9
2023-04-02T20:27:38.731Z,77.2
2023-04-02T20:37:38.708Z,79.3
2023-04-02T20:47:38.792Z,79.5
2023-04-02T20:57:38.718Z,80.6
2023-04-02T21:02:38.792Z,79.6
2023-04-02T21:07:38.738Z,76.3
2023-04-02T21:12:38.726Z,76.0
2023-04-02T21:17:38.791Z,75.8
2023-04-02T21:22:38.735Z,76.0
2023-04-02T21:27:38.735Z,74.6
2023-04-02T21:32:38.773Z,74.3
2023-04-02T21:37:38.742Z,75.7
2023-04-02T21:52:38.729Z,77.8
2023-04-02T22:07:38.730Z,76.2
2023-04-02T22:12:38.727Z,78.0
2023-04-02T22:17:39.889Z,76.9
2023-04-02T22:27:38.743Z,78.4
2023-04-02T22:32:38.766Z,77.9
2023-04-02T22:42:38.802Z,77.3
2023-04-02T22:52:38.750Z,76.2
2023-04-02T22:57:38.752Z,76.3
2023-04-02T23:02:38.822Z,76.0
2023-04-02T23:07:38.750Z,76.2
2023-04-02T23:12:38.752Z,76.4
2023-04-02T23:17:38.796Z,76.1
2023-04-02T23:22:38.787Z,77.2
2023-04-02T23:27:38.757Z,76.3
2023-04-02T23:32:38.770Z,75.9
2023-04-02T23:37:38.771Z,79.4
2023-04-02T23:47:38.819Z,79.3
2023-04-02T23:52:38.783Z,77.3
2023-04-02T23:57:38.773Z,77.9
